createdAt,value
2018-11-02T00:01:57.021Z,100331.64
2018-11-02T00:04:31.288Z,100331.64
2018-11-02T00:07:04.789Z,100346.70
2018-11-02T00:09:37.602Z,100360.23
2018-11-02T00:12:11.487Z,100362.37
2018-11-02T00:14:45.287Z,100365.92
2018-11-02T00:17:18.856Z,100374.55
2018-11-02T00:19:52.840Z,100378.10
2018-11-02T00:22:25.632Z,100376.27
2018-11-02T00:24:59.123Z,100376.61
2018-11-02T00:27:32.770Z,100388.92
2018-11-02T00:30:05.624Z,100399.08
2018-11-02T00:32:38.415Z,100411.39
2018-11-02T00:35:12.610Z,100410.89
2018-11-02T00:37:46.038Z,100407.34
2018-11-02T00:40:19.794Z,100411.39
2018-11-02T00:42:53.484Z,100414.94
2018-11-02T00:45:27.286Z,100414.94
2018-11-02T00:48:00.802Z,100413.77
2018-11-02T00:50:34.521Z,100411.06
2018-11-02T00:53:08.584Z,100411.06
2018-11-02T00:55:42.283Z,100413.58
2018-11-02T00:58:15.731Z,100407.29
2018-11-02T01:00:49.353Z,100420.34
2018-11-02T01:03:22.968Z,100420.34
2018-11-02T01:05:56.609Z,100420.81
2018-11-02T01:08:30.289Z,100423.52
2018-11-02T01:11:03.769Z,100432.52
2018-11-02T01:13:37.250Z,100430.28
2018-11-02T01:16:10.407Z,100424.03
2018-11-02T01:18:44.384Z,100419.13
2018-11-02T01:21:17.977Z,100432.52
2018-11-02T01:23:51.633Z,100428.09
2018-11-02T01:26:25.708Z,100430.65
2018-11-02T01:28:59.659Z,100435.23
2018-11-02T01:31:33.327Z,100435.74
2018-11-02T01:34:07.566Z,100449.27
2018-11-02T01:36:41.357Z,100447.41
2018-11-02T01:39:15.017Z,100453.66
2018-11-02T01:41:48.589Z,100461.45
2018-11-02T01:44:22.459Z,100458.41
2018-11-02T01:46:55.788Z,100468.20
2018-11-02T01:49:30.057Z,100468.06
2018-11-02T01:52:03.553Z,100468.06
2018-11-02T01:54:37.056Z,100477.67
2018-11-02T01:57:11.287Z,100488.83
2018-11-02T01:59:44.770Z,100500.81
2018-11-02T02:02:18.476Z,100494.92
2018-11-02T02:04:52.272Z,100494.92
2018-11-02T02:07:25.786Z,100495.27
2018-11-02T02:09:59.541Z,100504.22
2018-11-02T02:12:33.502Z,100504.22
2018-11-02T02:15:08.279Z,100512.70
2018-11-02T02:17:42.052Z,100510.48
2018-11-02T02:20:15.871Z,100518.25
2018-11-02T02:22:49.598Z,100507.09
2018-11-02T02:25:23.325Z,100507.09
2018-11-02T02:27:58.372Z,100503.38
2018-11-02T02:30:32.377Z,100504.39
2018-11-02T02:33:05.837Z,100506.59
2018-11-02T02:35:39.610Z,100503.19
2018-11-02T02:38:13.270Z,100503.19
2018-11-02T02:40:47.374Z,100509.44
2018-11-02T02:43:21.411Z,100507.09
2018-11-02T02:45:55.057Z,100510.14
2018-11-02T02:48:29.380Z,100513.16
2018-11-02T02:51:02.859Z,100513.67
2018-11-02T02:53:36.535Z,100515.35
2018-11-02T02:56:10.580Z,100507.55
2018-11-02T02:58:44.273Z,100509.75
2018-11-02T03:01:17.808Z,100504.00
2018-11-02T03:03:51.242Z,100505.83
2018-11-02T03:06:24.085Z,100506.20
2018-11-02T03:08:57.613Z,100507.05
2018-11-02T03:11:31.283Z,100498.59
2018-11-02T03:14:05.291Z,100506.20
2018-11-02T03:16:38.790Z,100511.61
2018-11-02T03:19:12.508Z,100517.47
2018-11-02T03:21:46.524Z,100517.47
2018-11-02T03:24:20.269Z,100527.00
2018-11-02T03:26:54.368Z,100535.78
2018-11-02T03:29:28.296Z,100537.50
2018-11-02T03:32:01.819Z,100539.20
2018-11-02T03:34:35.571Z,100553.37
2018-11-02T03:37:09.319Z,100553.37
2018-11-02T03:39:42.768Z,100541.70
2018-11-02T03:42:16.557Z,100548.16
2018-11-02T03:44:50.290Z,100548.16
2018-11-02T03:47:23.793Z,100541.90
2018-11-02T03:49:57.518Z,100557.48
2018-11-02T03:52:32.278Z,100557.48
2018-11-02T03:55:06.348Z,100561.54
2018-11-02T03:57:40.434Z,100567.60
2018-11-02T04:00:14.459Z,100575.02
2018-11-02T04:02:47.798Z,100570.62
2018-11-02T04:05:21.786Z,100579.37
2018-11-02T04:07:55.607Z,100571.14
2018-11-02T04:10:29.273Z,100571.14
2018-11-02T04:13:02.802Z,100583.74
2018-11-02T04:15:35.445Z,100590.17
2018-11-02T04:18:08.567Z,100596.56
2018-11-02T04:20:42.291Z,100603.89
2018-11-02T04:23:15.805Z,100611.13
2018-11-02T04:25:48.765Z,100617.89
2018-11-02T04:28:21.420Z,100626.38
2018-11-02T04:30:55.345Z,100629.08
2018-11-02T04:33:28.797Z,100637.34
2018-11-02T04:36:02.497Z,100633.92
2018-11-02T04:38:36.291Z,100633.92
2018-11-02T04:41:09.782Z,100637.13
2018-11-02T04:43:43.601Z,100640.69
2018-11-02T04:46:17.077Z,100640.69
2018-11-02T04:48:50.585Z,100656.44
2018-11-02T04:51:24.272Z,100652.86
2018-11-02T04:53:57.789Z,100656.58
2018-11-02T04:56:31.581Z,100650.73
2018-11-02T04:59:05.380Z,100650.73
2018-11-02T05:01:39.443Z,100675.72
2018-11-02T05:04:13.052Z,100673.52
2018-11-02T05:06:46.656Z,100675.38
2018-11-02T05:09:20.267Z,100671.02
2018-11-02T05:11:53.778Z,100669.80
2018-11-02T05:14:27.545Z,100660.77
2018-11-02T05:17:01.287Z,100660.77
2018-11-02T05:19:35.495Z,100671.31
2018-11-02T05:22:09.474Z,100679.06
2018-11-02T05:24:42.800Z,100677.70
2018-11-02T05:27:16.680Z,100668.20
2018-11-02T05:29:50.289Z,100668.20
2018-11-02T05:32:23.809Z,100669.97
2018-11-02T05:34:58.273Z,100675.64
2018-11-02T05:37:32.287Z,100675.64
2018-11-02T05:40:05.811Z,100684.27
2018-11-02T05:42:39.532Z,100685.22
2018-11-02T05:45:13.278Z,100685.22
2018-11-02T05:47:47.384Z,100694.23
2018-11-02T05:50:21.065Z,100711.48
2018-11-02T05:52:54.596Z,100712.67
2018-11-02T05:55:28.292Z,100709.77
2018-11-02T05:58:02.525Z,100721.59
2018-11-02T06:00:36.459Z,100724.50
2018-11-02T06:03:10.064Z,100724.70
2018-11-02T06:05:43.605Z,100735.83
2018-11-02T06:08:17.556Z,100740.86
2018-11-02T06:10:51.291Z,100746.14
2018-11-02T06:13:24.848Z,100754.46
2018-11-02T06:15:57.456Z,100760.72
2018-11-02T06:18:30.253Z,100766.63
2018-11-02T06:21:03.822Z,100770.31
2018-11-02T06:23:37.604Z,100779.23
2018-11-02T06:26:11.368Z,100779.23
2018-11-02T06:28:44.811Z,100778.39
2018-11-02T06:31:18.444Z,100791.36
2018-11-02T06:33:51.813Z,100791.36
2018-11-02T06:36:25.514Z,100806.28
2018-11-02T06:38:59.346Z,100806.28
2018-11-02T06:41:32.723Z,100800.66
2018-11-02T06:44:06.367Z,100805.94
2018-11-02T06:46:40.400Z,100807.80
2018-11-02T06:49:15.392Z,100817.61
2018-11-02T06:51:48.782Z,100823.02
2018-11-02T06:54:21.587Z,100825.52
2018-11-02T06:56:54.385Z,100828.94
2018-11-02T06:59:28.120Z,100829.78
2018-11-02T07:02:02.396Z,100846.73
2018-11-02T07:04:36.412Z,100839.59
2018-11-02T07:07:10.314Z,100837.60
2018-11-02T07:09:43.756Z,100839.97
2018-11-02T07:12:17.539Z,100847.41
2018-11-02T07:14:51.597Z,100847.41
2018-11-02T07:17:25.304Z,100862.66
2018-11-02T07:19:59.103Z,100864.86
2018-11-02T07:22:33.292Z,100867.44
2018-11-02T07:25:07.316Z,100867.06
2018-11-02T07:27:40.824Z,100871.12
2018-11-02T07:30:14.753Z,100875.81
2018-11-02T07:32:48.480Z,100875.81
2018-11-02T07:35:22.616Z,100880.45
2018-11-02T07:37:56.745Z,100884.86
2018-11-02T07:40:30.771Z,100894.48
2018-11-02T07:43:04.565Z,100898.67
2018-11-02T07:45:38.284Z,100898.67
2018-11-02T07:48:11.819Z,100908.44
2018-11-02T07:50:44.531Z,100914.53
2018-11-02T07:53:18.070Z,100909.20
2018-11-02T07:55:51.791Z,100904.14
2018-11-02T07:58:25.502Z,100903.08
2018-11-02T08:00:59.362Z,100903.08
2018-11-02T08:03:33.447Z,100925.22
2018-11-02T08:06:07.068Z,100915.75
2018-11-02T08:08:41.069Z,100918.97
2018-11-02T08:11:14.655Z,100922.14
2018-11-02T08:13:48.311Z,100927.22
2018-11-02T08:16:21.776Z,100932.63
2018-11-02T08:18:55.601Z,100943.16
2018-11-02T08:21:29.300Z,100943.16
2018-11-02T08:24:02.909Z,100945.52
2018-11-02T08:26:35.419Z,100952.41
2018-11-02T08:29:09.290Z,100944.84
2018-11-02T08:31:42.829Z,100950.77
2018-11-02T08:34:16.592Z,100960.95
2018-11-02T08:36:54.054Z,100960.95
2018-11-02T08:39:28.279Z,100968.36
2018-11-02T08:42:01.754Z,100969.37
2018-11-02T08:44:35.886Z,100972.42
2018-11-02T08:47:09.553Z,100980.41
2018-11-02T08:49:43.054Z,100986.30
2018-11-02T08:52:16.839Z,100988.02
2018-11-02T08:54:50.785Z,100976.40
2018-11-02T08:57:24.459Z,100992.42
2018-11-02T08:59:58.310Z,100992.42
2018-11-02T09:02:31.879Z,101001.98
2018-11-02T09:05:05.857Z,100998.34
2018-11-02T09:07:40.294Z,101009.44
2018-11-02T09:10:14.584Z,101009.44
2018-11-02T09:12:48.297Z,101013.37
2018-11-02T09:15:21.804Z,101017.64
2018-11-02T09:17:56.332Z,100995.48
2018-11-02T09:20:30.068Z,100995.48
2018-11-02T09:23:03.629Z,100999.32
2018-11-02T09:25:37.085Z,101010.20
2018-11-02T09:28:10.661Z,101009.22
2018-11-02T09:30:44.084Z,101009.56
2018-11-02T09:33:17.575Z,101006.85
2018-11-02T09:35:51.302Z,100998.59
2018-11-02T09:38:25.497Z,100992.67
2018-11-02T09:40:58.807Z,100994.88
2018-11-02T09:43:32.567Z,101008.20
2018-11-02T09:46:06.291Z,101008.20
2018-11-02T09:48:39.756Z,101010.41
2018-11-02T09:51:13.424Z,101018.91
2018-11-02T09:53:46.789Z,101034.31
2018-11-02T09:56:20.601Z,101035.28
2018-11-02T09:58:54.286Z,101035.28
2018-11-02T10:01:27.827Z,101043.41
2018-11-02T10:04:01.568Z,101026.45
2018-11-02T10:06:35.348Z,101026.45
2018-11-02T10:09:12.978Z,101038.80
2018-11-02T10:11:46.516Z,101031.59
2018-11-02T10:14:20.292Z,101031.59
2018-11-02T10:16:53.846Z,101049.06
2018-11-02T10:19:28.681Z,101045.68
2018-11-02T10:22:02.289Z,101045.68
2018-11-02T10:24:36.299Z,101046.56
2018-11-02T10:27:10.390Z,101053.33
2018-11-02T10:29:44.340Z,101054.52
2018-11-02T10:32:17.791Z,101052.31
2018-11-02T10:34:51.599Z,101054.73
2018-11-02T10:37:25.344Z,101054.73
2018-11-02T10:39:58.801Z,101062.34
2018-11-02T10:42:32.521Z,101039.40
2018-11-02T10:45:06.619Z,101039.40
2018-11-02T10:47:40.292Z,101055.64
2018-11-02T10:50:13.821Z,101063.19
2018-11-02T10:52:47.554Z,101063.05
2018-11-02T10:55:21.279Z,101063.05
2018-11-02T10:57:54.824Z,101056.32
2018-11-02T11:00:45.938Z,101051.61
2018-11-02T11:03:18.339Z,101051.61
2018-11-02T11:05:51.839Z,101064.50
2018-11-02T11:08:25.600Z,101075.12
2018-11-02T11:10:59.310Z,101075.12
2018-11-02T11:13:33.058Z,101089.33
2018-11-02T11:16:06.387Z,101082.85
2018-11-02T11:18:40.596Z,101077.64
2018-11-02T11:21:14.505Z,101077.77
2018-11-02T11:23:47.979Z,101078.78
2018-11-02T11:26:21.556Z,101075.16
2018-11-02T11:28:55.600Z,101078.00
2018-11-02T11:31:29.295Z,101073.70
2018-11-02T11:34:02.757Z,101070.41
2018-11-02T11:36:36.457Z,101073.33
2018-11-02T11:39:15.300Z,101074.92
2018-11-02T11:41:48.772Z,101081.27
2018-11-02T11:44:22.519Z,101066.34
2018-11-02T11:46:56.297Z,101066.34
2018-11-02T11:49:29.742Z,101067.60
2018-11-02T11:52:03.405Z,101068.05
2018-11-02T11:54:38.154Z,101064.83
2018-11-02T11:57:12.367Z,101064.38
2018-11-02T11:59:46.295Z,101068.79
2018-11-02T12:02:20.481Z,101060.66
2018-11-02T12:04:54.423Z,101060.28
2018-11-02T12:07:28.300Z,101061.93
2018-11-02T12:10:01.885Z,101057.45
2018-11-02T12:12:35.618Z,101044.59
2018-11-02T12:15:11.286Z,101044.59
2018-11-02T12:17:45.596Z,101061.23
2018-11-02T12:20:22.397Z,101053.64
2018-11-02T12:22:58.740Z,101054.92
2018-11-02T12:25:32.287Z,101064.28
2018-11-02T12:28:05.808Z,101063.87
2018-11-02T12:30:38.625Z,101061.94
2018-11-02T12:33:11.443Z,101062.61
2018-11-02T12:35:45.064Z,101064.95
2018-11-02T12:38:18.740Z,101058.75
2018-11-02T12:40:52.385Z,101055.53
2018-11-02T12:43:26.306Z,101061.80
2018-11-02T12:45:59.783Z,101057.09
2018-11-02T12:48:33.757Z,101046.52
2018-11-02T12:51:07.305Z,101046.52
2018-11-02T12:53:41.554Z,101045.77
2018-11-02T12:56:15.282Z,101050.92
2018-11-02T12:58:49.359Z,101054.79
2018-11-02T13:01:22.884Z,101061.13
2018-11-02T13:03:55.259Z,101069.86
2018-11-02T13:06:28.778Z,101068.57
2018-11-02T13:09:02.993Z,101079.67
2018-11-02T13:11:36.779Z,101079.67
2018-11-02T13:14:10.553Z,101083.30
2018-11-02T13:16:44.381Z,101083.30
2018-11-02T13:19:17.795Z,101084.67
2018-11-02T13:21:51.656Z,101085.73
2018-11-02T13:24:25.286Z,101085.73
2018-11-02T13:26:58.788Z,101087.94
2018-11-02T13:29:32.546Z,101084.61
2018-11-02T13:32:06.291Z,101084.61
2018-11-02T13:34:39.700Z,101084.16
2018-11-02T13:37:13.674Z,101074.20
2018-11-02T13:39:47.314Z,101073.86
2018-11-02T13:42:21.175Z,101077.14
2018-11-02T13:44:55.282Z,101077.73
2018-11-02T13:47:28.760Z,101081.33
2018-11-02T13:50:02.362Z,101084.57
2018-11-02T13:52:35.819Z,101084.57
2018-11-02T13:55:10.950Z,101082.45
2018-11-02T13:57:45.272Z,101082.45
2018-11-02T14:00:19.827Z,101100.69
2018-11-02T14:02:53.536Z,101112.53
2018-11-02T14:05:27.062Z,101112.53
2018-11-02T14:08:00.628Z,101113.89
2018-11-02T14:10:35.358Z,101105.27
2018-11-02T14:13:09.725Z,101094.69
2018-11-02T14:15:43.548Z,101104.47
2018-11-02T14:18:17.333Z,101108.92
2018-11-02T14:20:50.756Z,101116.66
2018-11-02T14:23:24.513Z,101115.07
2018-11-02T14:25:58.087Z,101115.07
2018-11-02T14:28:31.614Z,101131.34
2018-11-02T14:31:05.049Z,101133.05
2018-11-02T14:33:38.596Z,101134.56
2018-11-02T14:36:12.337Z,101135.55
2018-11-02T14:38:46.499Z,101146.81
2018-11-02T14:41:20.487Z,101142.20
2018-11-02T14:43:54.058Z,101148.64
2018-11-02T14:46:27.608Z,101149.59
2018-11-02T14:49:01.292Z,101151.63
2018-11-02T14:51:35.004Z,101147.72
2018-11-02T14:54:08.605Z,101156.70
2018-11-02T14:56:42.286Z,101144.84
2018-11-02T14:59:15.805Z,101144.30
2018-11-02T15:01:49.520Z,101158.45
2018-11-02T15:04:22.989Z,101158.45
2018-11-02T15:06:57.664Z,101164.42
2018-11-02T15:09:31.361Z,101162.73
2018-11-02T15:12:05.292Z,101178.63
2018-11-02T15:14:38.805Z,101184.22
2018-11-02T15:17:13.054Z,101168.09
2018-11-02T15:19:46.982Z,101168.09
2018-11-02T15:22:20.570Z,101180.51
2018-11-02T15:24:54.074Z,101183.73
2018-11-02T15:27:27.641Z,101190.16
2018-11-02T15:30:02.004Z,101190.80
2018-11-02T15:32:36.056Z,101189.58
2018-11-02T15:35:11.271Z,101193.65
2018-11-02T15:37:46.279Z,101194.66
2018-11-02T15:40:19.840Z,101188.52
2018-11-02T15:42:52.625Z,101203.60
2018-11-02T15:45:26.382Z,101195.59
2018-11-02T15:48:00.060Z,101197.97
2018-11-02T15:50:33.607Z,101199.45
2018-11-02T15:53:07.328Z,101194.20
2018-11-02T15:55:40.813Z,101202.80
2018-11-02T15:58:13.606Z,101203.81
2018-11-02T16:00:46.464Z,101202.46
2018-11-02T16:03:20.057Z,101205.30
2018-11-02T16:05:54.336Z,101204.45
2018-11-02T16:08:27.791Z,101207.88
2018-11-02T16:11:01.535Z,101215.45
2018-11-02T16:13:35.344Z,101215.45
2018-11-02T16:16:09.590Z,101230.71
2018-11-02T16:18:43.348Z,101229.02
2018-11-02T16:21:17.396Z,101228.64
2018-11-02T16:23:51.281Z,101235.07
2018-11-02T16:26:24.746Z,101232.86
2018-11-02T16:28:58.948Z,101247.77
2018-11-02T16:31:32.610Z,101247.77
2018-11-02T16:34:06.366Z,101253.20
2018-11-02T16:36:39.764Z,101254.55
2018-11-02T16:39:17.283Z,101245.27
2018-11-02T16:41:50.776Z,101245.27
2018-11-02T16:44:23.708Z,101253.96
2018-11-02T16:46:57.513Z,101255.70
2018-11-02T16:49:31.626Z,101252.09
2018-11-02T16:52:05.483Z,101258.75
2018-11-02T16:54:38.906Z,101257.39
2018-11-02T16:57:12.539Z,101253.41
2018-11-02T16:59:46.273Z,101253.41
2018-11-02T17:02:20.008Z,101267.89
2018-11-02T17:04:53.653Z,101270.22
2018-11-02T17:07:27.485Z,101269.16
2018-11-02T17:10:01.519Z,101274.36
2018-11-02T17:12:35.275Z,101274.87
2018-11-02T17:15:09.563Z,101280.42
2018-11-02T17:17:43.281Z,101272.80
2018-11-02T17:20:18.332Z,101293.63
2018-11-02T17:22:52.280Z,101301.25
2018-11-02T17:25:25.745Z,101306.33
2018-11-02T17:27:59.572Z,101310.65
2018-11-02T17:30:33.663Z,101310.65
2018-11-02T19:51:47.332Z,101477.02
2018-11-02T19:54:21.298Z,101485.65
2018-11-02T19:56:56.623Z,101487.74
2018-11-02T20:02:09.008Z,101492.54
2018-11-02T20:04:44.814Z,101492.54
2018-11-02T20:07:22.077Z,101498.39
2018-11-02T20:09:59.041Z,101502.09
2018-11-02T20:12:36.005Z,101496.96
2018-11-02T20:15:14.997Z,101507.50
2018-11-02T20:17:52.069Z,101494.72
2018-11-02T20:20:27.999Z,101494.72
2018-11-02T20:23:05.067Z,101503.83
2018-11-02T20:25:42.163Z,101506.24
2018-11-02T20:28:20.679Z,101506.24
2018-11-02T20:30:55.904Z,101508.48
2018-11-02T20:33:33.059Z,101497.16
2018-11-02T20:36:10.991Z,101495.61
2018-11-02T20:38:49.737Z,101504.72
2018-11-02T20:41:27.046Z,101504.72
2018-11-02T20:44:04.038Z,101511.80
2018-11-02T20:46:40.577Z,101501.78
2018-11-02T20:49:17.996Z,101501.78
2018-11-02T20:51:55.063Z,101525.39
2018-11-02T20:54:32.074Z,101526.23
2018-11-02T20:57:09.667Z,101529.77
2018-11-02T20:59:44.929Z,101529.77
2018-11-02T21:02:22.060Z,101537.14
2018-11-02T21:04:59.072Z,101538.66
2018-11-02T21:07:36.064Z,101548.37
2018-11-02T21:10:15.140Z,101554.48
2018-11-02T21:12:53.063Z,101554.48
2018-11-02T21:15:30.056Z,101558.38
2018-11-02T21:18:07.053Z,101566.70
2018-11-02T21:20:44.808Z,101559.50
2018-11-02T21:23:22.519Z,101549.63
2018-11-02T21:26:00.075Z,101549.63
2018-11-02T21:28:37.085Z,101560.20
2018-11-02T21:31:16.672Z,101556.06
2018-11-02T21:33:52.054Z,101556.06
2018-11-02T21:36:29.073Z,101565.13
2018-11-02T21:39:07.047Z,101570.80
2018-11-02T21:41:44.657Z,101574.55
2018-11-02T21:44:21.975Z,101574.55
2018-11-02T21:46:57.888Z,101568.76
2018-11-02T21:49:33.916Z,101563.64
2018-11-02T21:52:11.085Z,101557.16
2018-11-02T21:54:48.066Z,101544.52
2018-11-02T21:57:26.667Z,101553.25
2018-11-02T22:00:01.938Z,101553.25
2018-11-02T22:02:39.063Z,101553.77
2018-11-02T22:05:16.997Z,101551.19
2018-11-02T22:07:55.041Z,101543.65
2018-11-02T22:10:31.982Z,101555.08
2018-11-02T22:13:08.986Z,101552.16
2018-11-02T22:15:46.040Z,101555.41
2018-11-02T22:18:23.012Z,101561.37
2018-11-02T22:21:00.691Z,101558.27
2018-11-02T22:24:33.596Z,101561.89
2018-11-02T22:27:07.607Z,101555.72
2018-11-02T22:29:41.301Z,101558.08
2018-11-02T22:32:14.729Z,101559.11
2018-11-02T22:34:48.528Z,101558.73
2018-11-02T22:37:21.957Z,101562.83
2018-11-02T22:39:55.785Z,101563.82
2018-11-02T22:42:30.038Z,101561.88
2018-11-02T22:45:04.285Z,101561.88
2018-11-02T22:47:37.719Z,101576.03
2018-11-02T22:50:12.274Z,101570.76
2018-11-02T22:52:45.713Z,101567.18
2018-11-02T22:55:19.382Z,101569.53
2018-11-02T22:57:53.369Z,101576.34
2018-11-02T23:00:26.836Z,101577.88
2018-11-02T23:03:00.541Z,101577.50
2018-11-02T23:05:34.338Z,101577.50
2018-11-02T23:08:08.284Z,101585.87
2018-11-02T23:10:41.740Z,101584.98
2018-11-02T23:13:14.937Z,101588.22
2018-11-02T23:15:47.621Z,101594.70
2018-11-02T23:18:21.544Z,101596.39
2018-11-02T23:20:55.141Z,101601.84
2018-11-02T23:23:28.790Z,101592.48
2018-11-02T23:26:02.504Z,101595.20
2018-11-02T23:28:36.060Z,101595.20
2018-11-02T23:31:09.612Z,101597.42
2018-11-02T23:33:43.287Z,101591.45
2018-11-02T23:36:16.723Z,101585.50
2018-11-02T23:38:50.509Z,101585.50
2018-11-02T23:41:24.057Z,101593.67
2018-11-02T23:43:57.660Z,101597.24
2018-11-02T23:46:31.287Z,101602.87
2018-11-02T23:49:04.752Z,101602.36
2018-11-02T23:51:38.775Z,101603.72
2018-11-02T23:54:12.381Z,101594.64
2018-11-02T23:56:45.807Z,101594.64
2018-11-02T23:59:19.485Z,101597.42
